sensor_id;sensor_type;location;lat;lon;timestamp;pressure;altitude;pressure_sealevel;temperature;humidity
46768;BME280;69007;48.978;18.066;2024-02-26T00:00:27;96580.34;;;7.14;100.00
46768;BME280;69007;48.978;18.066;2024-02-26T00:02:54;96595.25;;;7.22;100.00
46768;BME280;69007;48.978;18.066;2024-02-26T00:05:19;96560.06;;;7.11;100.00
46768;BME280;69007;48.978;18.066;2024-02-26T00:07:44;96567.34;;;7.16;100.00
46768;BME280;69007;48.978;18.066;2024-02-26T00:10:10;96578.47;;;7.19;100.00
46768;BME280;69007;48.978;18.066;2024-02-26T00:12:35;96586.59;;;7.14;100.00
46768;BME280;69007;48.978;18.066;2024-02-26T00:15:01;96573.06;;;7.25;100.00
46768;BME280;69007;48.978;18.066;2024-02-26T00:17:26;96555.19;;;7.08;100.00
46768;BME280;69007;48.978;18.066;2024-02-26T00:19:51;96570.63;;;7.18;100.00
46768;BME280;69007;48.978;18.066;2024-02-26T00:22:17;96577.38;;;7.20;100.00
46768;BME280;69007;48.978;18.066;2024-02-26T00:24:42;96532.44;;;6.99;100.00
46768;BME280;69007;48.978;18.066;2024-02-26T00:27:08;96583.88;;;7.19;100.00
46768;BME280;69007;48.978;18.066;2024-02-26T00:29:33;96568.19;;;7.22;100.00
46768;BME280;69007;48.978;18.066;2024-02-26T00:31:58;96586.03;;;7.17;100.00
46768;BME280;69007;48.978;18.066;2024-02-26T00:34:24;96565.47;;;7.22;100.00
46768;BME280;69007;48.978;18.066;2024-02-26T00:36:49;96552.75;;;7.12;100.00
46768;BME280;69007;48.978;18.066;2024-02-26T00:39:14;96570.09;;;7.21;100.00
46768;BME280;69007;48.978;18.066;2024-02-26T00:41:40;96565.22;;;7.18;100.00
46768;BME280;69007;48.978;18.066;2024-02-26T00:44:06;96555.19;;;7.13;100.00
46768;BME280;69007;48.978;18.066;2024-02-26T00:46:31;96555.72;;;7.15;100.00
46768;BME280;69007;48.978;18.066;2024-02-26T00:48:57;96545.97;;;7.04;100.00
46768;BME280;69007;48.978;18.066;2024-02-26T00:51:22;96570.06;;;7.11;100.00
46768;BME280;69007;48.978;18.066;2024-02-26T00:53:47;96539.50;;;7.00;100.00
46768;BME280;69007;48.978;18.066;2024-02-26T00:56:12;96540.84;;;7.03;100.00
46768;BME280;69007;48.978;18.066;2024-02-26T00:58:39;96563.84;;;7.05;100.00
46768;BME280;69007;48.978;18.066;2024-02-26T01:01:04;96538.13;;;6.87;100.00
46768;BME280;69007;48.978;18.066;2024-02-26T01:03:29;96559.50;;;6.99;100.00
46768;BME280;69007;48.978;18.066;2024-02-26T01:05:54;96541.41;;;7.10;100.00
46768;BME280;69007;48.978;18.066;2024-02-26T01:08:20;96546.53;;;7.16;100.00
46768;BME280;69007;48.978;18.066;2024-02-26T01:10:45;96558.44;;;7.15;100.00
46768;BME280;69007;48.978;18.066;2024-02-26T01:13:10;96563.31;;;7.18;100.00
46768;BME280;69007;48.978;18.066;2024-02-26T01:15:36;96556.28;;;7.23;100.00
46768;BME280;69007;48.978;18.066;2024-02-26T01:18:01;96529.75;;;7.09;100.00
46768;BME280;69007;48.978;18.066;2024-02-26T01:20:27;96555.19;;;7.18;100.00
46768;BME280;69007;48.978;18.066;2024-02-26T01:22:52;96551.94;;;7.11;100.00
46768;BME280;69007;48.978;18.066;2024-02-26T01:25:17;96547.59;;;7.26;100.00
46768;BME280;69007;48.978;18.066;2024-02-26T01:27:43;96520.56;;;7.15;100.00
46768;BME280;69007;48.978;18.066;2024-02-26T01:30:09;96552.75;;;7.27;100.00
46768;BME280;69007;48.978;18.066;2024-02-26T01:32:35;96550.59;;;7.14;100.00
46768;BME280;69007;48.978;18.066;2024-02-26T01:35:01;96537.06;;;7.14;100.00
46768;BME280;69007;48.978;18.066;2024-02-26T01:37:28;96523.78;;;7.07;100.00
46768;BME280;69007;48.978;18.066;2024-02-26T01:39:55;96530.56;;;7.20;100.00
46768;BME280;69007;48.978;18.066;2024-02-26T01:42:20;96502.69;;;6.99;100.00
46768;BME280;69007;48.978;18.066;2024-02-26T01:44:46;96515.16;;;7.10;100.00
46768;BME280;69007;48.978;18.066;2024-02-26T01:47:12;96512.72;;;7.14;100.00
46768;BME280;69007;48.978;18.066;2024-02-26T01:49:38;96523.53;;;7.24;100.00
46768;BME280;69007;48.978;18.066;2024-02-26T01:52:06;96541.66;;;7.24;100.00
46768;BME280;69007;48.978;18.066;2024-02-26T01:54:35;96527.06;;;7.19;100.00
46768;BME280;69007;48.978;18.066;2024-02-26T01:57:02;96517.84;;;7.15;100.00
46768;BME280;69007;48.978;18.066;2024-02-26T01:59:28;96535.97;;;7.30;100.00
46768;BME280;69007;48.978;18.066;2024-02-26T02:01:56;96508.38;;;7.18;100.00
46768;BME280;69007;48.978;18.066;2024-02-26T02:04:23;96496.75;;;7.17;100.00
46768;BME280;69007;48.978;18.066;2024-02-26T02:06:48;96486.47;;;7.25;100.00
46768;BME280;69007;48.978;18.066;2024-02-26T02:09:14;96527.56;;;7.57;100.00
46768;BME280;69007;48.978;18.066;2024-02-26T02:11:40;96528.06;;;7.70;100.00
46768;BME280;69007;48.978;18.066;2024-02-26T02:14:06;96523.75;;;7.74;100.00
46768;BME280;69007;48.978;18.066;2024-02-26T02:16:31;96511.31;;;7.63;100.00
46768;BME280;69007;48.978;18.066;2024-02-26T02:18:58;96511.00;;;7.80;100.00
46768;BME280;69007;48.978;18.066;2024-02-26T02:21:24;96528.06;;;7.80;100.00
46768;BME280;69007;48.978;18.066;2024-02-26T02:23:49;96529.66;;;7.86;100.00
46768;BME280;69007;48.978;18.066;2024-02-26T02:26:15;96514.78;;;7.89;100.00
46768;BME280;69007;48.978;18.066;2024-02-26T02:28:41;96521.00;;;7.84;100.00
46768;BME280;69007;48.978;18.066;2024-02-26T02:31:07;96528.56;;;7.92;100.00
46768;BME280;69007;48.978;18.066;2024-02-26T02:33:34;96518.00;;;7.96;100.00
46768;BME280;69007;48.978;18.066;2024-02-26T02:35:59;96517.97;;;8.01;100.00
46768;BME280;69007;48.978;18.066;2024-02-26T02:38:25;96518.22;;;8.05;100.00
46768;BME280;69007;48.978;18.066;2024-02-26T02:40:54;96503.84;;;8.09;100.00
46768;BME280;69007;48.978;18.066;2024-02-26T02:43:19;96493.31;;;8.03;100.00
46768;BME280;69007;48.978;18.066;2024-02-26T02:45:45;96483.59;;;7.97;100.00
46768;BME280;69007;48.978;18.066;2024-02-26T02:48:13;96508.44;;;8.19;100.00
46768;BME280;69007;48.978;18.066;2024-02-26T02:50:39;96488.72;;;7.98;100.00
46768;BME280;69007;48.978;18.066;2024-02-26T02:53:05;96488.97;;;8.02;100.00
46768;BME280;69007;48.978;18.066;2024-02-26T02:55:30;96479.78;;;7.98;100.00
46768;BME280;69007;48.978;18.066;2024-02-26T02:57:56;96491.69;;;8.07;100.00
46768;BME280;69007;48.978;18.066;2024-02-26T03:00:23;96504.69;;;8.05;100.00
46768;BME280;69007;48.978;18.066;2024-02-26T03:02:49;96484.13;;;7.93;100.00
46768;BME280;69007;48.978;18.066;2024-02-26T03:05:15;96498.13;;;8.16;100.00
46768;BME280;69007;48.978;18.066;2024-02-26T03:07:41;96490.53;;;8.18;100.00
46768;BME280;69007;48.978;18.066;2024-02-26T03:10:07;96491.38;;;8.19;100.00
46768;BME280;69007;48.978;18.066;2024-02-26T03:12:35;96491.63;;;8.22;100.00
46768;BME280;69007;48.978;18.066;2024-02-26T03:15:01;96492.97;;;8.20;100.00
46768;BME280;69007;48.978;18.066;2024-02-26T03:17:30;96487.03;;;8.18;100.00
46768;BME280;69007;48.978;18.066;2024-02-26T03:19:56;96472.44;;;8.03;100.00
46768;BME280;69007;48.978;18.066;2024-02-26T03:22:21;96478.16;;;8.07;100.00
46768;BME280;69007;48.978;18.066;2024-02-26T03:24:47;96480.59;;;7.98;100.00
46768;BME280;69007;48.978;18.066;2024-02-26T03:27:12;96459.28;;;7.76;100.00
46768;BME280;69007;48.978;18.066;2024-02-26T03:29:38;96481.16;;;7.90;100.00
46768;BME280;69007;48.978;18.066;2024-02-26T03:32:04;96470.09;;;7.86;100.00
46768;BME280;69007;48.978;18.066;2024-02-26T03:34:30;96468.19;;;7.87;100.00
46768;BME280;69007;48.978;18.066;2024-02-26T03:36:56;96458.78;;;7.69;100.00
46768;BME280;69007;48.978;18.066;2024-02-26T03:39:22;96455.78;;;7.65;100.00
46768;BME280;69007;48.978;18.066;2024-02-26T03:41:48;96459.59;;;7.64;100.00
46768;BME280;69007;48.978;18.066;2024-02-26T03:44:13;96466.41;;;7.51;100.00
46768;BME280;69007;48.978;18.066;2024-02-26T03:46:39;96439.09;;;7.37;100.00
46768;BME280;69007;48.978;18.066;2024-02-26T03:49:04;96438.78;;;7.54;100.00
46768;BME280;69007;48.978;18.066;2024-02-26T03:51:29;96453.59;;;7.83;100.00
46768;BME280;69007;48.978;18.066;2024-02-26T03:54:00;96449.53;;;7.75;100.00
46768;BME280;69007;48.978;18.066;2024-02-26T03:56:26;96451.16;;;7.76;100.00
46768;BME280;69007;48.978;18.066;2024-02-26T03:58:52;96415.72;;;7.72;100.00
46768;BME280;69007;48.978;18.066;2024-02-26T04:01:17;96430.25;;;7.87;100.00
46768;BME280;69007;48.978;18.066;2024-02-26T04:03:43;96425.19;;;7.70;100.00
46768;BME280;69007;48.978;18.066;2024-02-26T04:06:09;96443.81;;;7.82;100.00
46768;BME280;69007;48.978;18.066;2024-02-26T04:08:35;96444.63;;;7.87;100.00
46768;BME280;69007;48.978;18.066;2024-02-26T04:11:01;96429.47;;;7.86;100.00
46768;BME280;69007;48.978;18.066;2024-02-26T04:13:26;96429.97;;;7.88;100.00
46768;BME280;69007;48.978;18.066;2024-02-26T04:15:51;96430.28;;;7.82;100.00
46768;BME280;69007;48.978;18.066;2024-02-26T04:18:17;96423.53;;;7.79;100.00
46768;BME280;69007;48.978;18.066;2024-02-26T04:20:42;96444.91;;;7.86;100.00
46768;BME280;69007;48.978;18.066;2024-02-26T04:23:07;96419.19;;;7.83;100.00
46768;BME280;69007;48.978;18.066;2024-02-26T04:25:33;96435.13;;;7.90;100.00
46768;BME280;69007;48.978;18.066;2024-02-26T04:27:58;96436.47;;;7.92;100.00
46768;BME280;69007;48.978;18.066;2024-02-26T04:30:23;96441.38;;;7.90;100.00
46768;BME280;69007;48.978;18.066;2024-02-26T04:32:49;96437.28;;;7.93;100.00
46768;BME280;69007;48.978;18.066;2024-02-26T04:35:14;96439.19;;;7.92;100.00
46768;BME280;69007;48.978;18.066;2024-02-26T04:37:40;96435.41;;;7.88;100.00
46768;BME280;69007;48.978;18.066;2024-02-26T04:40:05;96411.09;;;7.73;100.00
46768;BME280;69007;48.978;18.066;2024-02-26T04:42:31;96433.81;;;7.82;100.00
46768;BME280;69007;48.978;18.066;2024-02-26T04:44:56;96406.50;;;7.68;100.00
46768;BME280;69007;48.978;18.066;2024-02-26T04:47:22;96412.47;;;7.65;100.00
46768;BME280;69007;48.978;18.066;2024-02-26T04:49:50;96406.84;;;7.51;100.00
46768;BME280;69007;48.978;18.066;2024-02-26T04:52:16;96428.47;;;7.62;100.00
46768;BME280;69007;48.978;18.066;2024-02-26T04:54:41;96419.53;;;7.66;100.00
46768;BME280;69007;48.978;18.066;2024-02-26T04:57:06;96400.53;;;7.71;100.00
46768;BME280;69007;48.978;18.066;2024-02-26T04:59:32;96434.94;;;7.71;100.00
46768;BME280;69007;48.978;18.066;2024-02-26T05:01:57;96435.78;;;7.61;100.00
46768;BME280;69007;48.978;18.066;2024-02-26T05:04:23;96431.97;;;7.62;100.00
46768;BME280;69007;48.978;18.066;2024-02-26T05:06:48;96426.88;;;7.50;100.00
46768;BME280;69007;48.978;18.066;2024-02-26T05:09:14;96388.41;;;7.59;100.00
46768;BME280;69007;48.978;18.066;2024-02-26T05:11:39;96395.72;;;7.58;100.00
46768;BME280;69007;48.978;18.066;2024-02-26T05:14:04;96397.09;;;7.50;100.00
46768;BME280;69007;48.978;18.066;2024-02-26T05:16:30;96416.59;;;7.47;100.00
46768;BME280;69007;48.978;18.066;2024-02-26T05:18:56;96424.72;;;7.47;100.00
46768;BME280;69007;48.978;18.066;2024-02-26T05:21:21;96404.19;;;7.36;100.00
46768;BME280;69007;48.978;18.066;2024-02-26T05:23:47;96407.47;;;7.28;100.00
46768;BME280;69007;48.978;18.066;2024-02-26T05:26:19;96405.84;;;7.16;100.00
46768;BME280;69007;48.978;18.066;2024-02-26T05:28:44;96428.53;;;7.31;100.00
46768;BME280;69007;48.978;18.066;2024-02-26T05:31:12;96431.81;;;7.33;100.00
46768;BME280;69007;48.978;18.066;2024-02-26T05:33:38;96421.53;;;7.19;100.00
46768;BME280;69007;48.978;18.066;2024-02-26T05:36:03;96422.56;;;7.39;100.00
46768;BME280;69007;48.978;18.066;2024-02-26T05:38:30;96423.13;;;7.31;100.00
46768;BME280;69007;48.978;18.066;2024-02-26T05:40:57;96404.75;;;7.17;100.00
46768;BME280;69007;48.978;18.066;2024-02-26T05:43:23;96425.28;;;7.39;100.00
46768;BME280;69007;48.978;18.066;2024-02-26T05:45:48;96454.78;;;7.46;100.00
46768;BME280;69007;48.978;18.066;2024-02-26T05:48:14;96447.44;;;7.56;100.00
46768;BME280;69007;48.978;18.066;2024-02-26T05:50:39;96444.44;;;7.58;100.00
46768;BME280;69007;48.978;18.066;2024-02-26T05:53:05;96435.25;;;7.59;100.00
46768;BME280;69007;48.978;18.066;2024-02-26T05:55:30;96430.09;;;7.63;100.00
46768;BME280;69007;48.978;18.066;2024-02-26T05:57:55;96456.50;;;7.91;100.00
46768;BME280;69007;48.978;18.066;2024-02-26T06:00:21;96449.66;;;8.09;100.00
46768;BME280;69007;48.978;18.066;2024-02-26T06:02:46;96456.66;;;8.71;100.00
46768;BME280;69007;48.978;18.066;2024-02-26T06:05:11;96462.69;;;9.31;100.00
46768;BME280;69007;48.978;18.066;2024-02-26T06:07:37;96445.81;;;9.34;100.00
46768;BME280;69007;48.978;18.066;2024-02-26T06:10:03;96450.50;;;9.82;100.00
46768;BME280;69007;48.978;18.066;2024-02-26T06:12:30;96436.63;;;9.84;99.61
46768;BME280;69007;48.978;18.066;2024-02-26T06:14:56;96469.47;;;10.30;98.54
46768;BME280;69007;48.978;18.066;2024-02-26T06:17:21;96455.25;;;10.58;94.81
46768;BME280;69007;48.978;18.066;2024-02-26T06:19:46;96483.78;;;10.79;94.43
46768;BME280;69007;48.978;18.066;2024-02-26T06:22:12;96463.34;;;10.63;95.88
46768;BME280;69007;48.978;18.066;2024-02-26T06:24:37;96493.59;;;10.37;96.29
46768;BME280;69007;48.978;18.066;2024-02-26T06:27:03;96476.91;;;10.01;97.65
46768;BME280;69007;48.978;18.066;2024-02-26T06:29:28;96475.78;;;9.53;100.00
46768;BME280;69007;48.978;18.066;2024-02-26T06:31:53;96482.78;;;9.30;100.00
46768;BME280;69007;48.978;18.066;2024-02-26T06:34:19;96483.94;;;9.24;100.00
46768;BME280;69007;48.978;18.066;2024-02-26T06:36:44;96499.44;;;9.18;100.00
46768;BME280;69007;48.978;18.066;2024-02-26T06:39:09;96492.78;;;9.00;100.00
46768;BME280;69007;48.978;18.066;2024-02-26T06:41:36;96475.28;;;8.88;100.00
46768;BME280;69007;48.978;18.066;2024-02-26T06:44:01;96467.75;;;8.74;100.00
46768;BME280;69007;48.978;18.066;2024-02-26T06:46:27;96502.69;;;8.81;100.00
46768;BME280;69007;48.978;18.066;2024-02-26T06:48:55;96510.31;;;8.79;100.00
46768;BME280;69007;48.978;18.066;2024-02-26T06:51:22;96497.75;;;8.93;100.00
46768;BME280;69007;48.978;18.066;2024-02-26T06:53:49;96497.22;;;8.91;100.00
46768;BME280;69007;48.978;18.066;2024-02-26T06:56:14;96488.84;;;8.82;100.00
46768;BME280;69007;48.978;18.066;2024-02-26T06:58:39;96503.00;;;8.79;100.00
46768;BME280;69007;48.978;18.066;2024-02-26T07:01:05;96498.72;;;8.68;100.00
46768;BME280;69007;48.978;18.066;2024-02-26T07:03:30;96478.63;;;8.69;100.00
46768;BME280;69007;48.978;18.066;2024-02-26T07:05:55;96472.56;;;8.88;100.00
46768;BME280;69007;48.978;18.066;2024-02-26T07:08:22;96501.44;;;9.08;100.00
46768;BME280;69007;48.978;18.066;2024-02-26T07:10:47;96501.44;;;9.08;100.00
46768;BME280;69007;48.978;18.066;2024-02-26T07:13:12;96512.22;;;9.18;100.00
46768;BME280;69007;48.978;18.066;2024-02-26T07:15:38;96484.81;;;9.49;100.00
46768;BME280;69007;48.978;18.066;2024-02-26T07:18:03;96475.25;;;10.67;99.86
46768;BME280;69007;48.978;18.066;2024-02-26T07:20:29;96505.66;;;11.73;92.66
46768;BME280;69007;48.978;18.066;2024-02-26T07:22:55;96497.34;;;12.89;86.13
46768;BME280;69007;48.978;18.066;2024-02-26T07:25:21;96488.25;;;14.01;81.38
46768;BME280;69007;48.978;18.066;2024-02-26T07:27:46;96514.28;;;15.14;77.25
46768;BME280;69007;48.978;18.066;2024-02-26T07:30:12;96501.69;;;15.48;72.40
46768;BME280;69007;48.978;18.066;2024-02-26T07:32:38;96504.13;;;13.91;77.00
46768;BME280;69007;48.978;18.066;2024-02-26T07:35:03;96506.28;;;12.67;83.09
46768;BME280;69007;48.978;18.066;2024-02-26T07:37:29;96512.53;;;11.84;88.05
46768;BME280;69007;48.978;18.066;2024-02-26T07:39:54;96527.81;;;11.00;93.82
46768;BME280;69007;48.978;18.066;2024-02-26T07:42:20;96518.91;;;10.57;97.32
46768;BME280;69007;48.978;18.066;2024-02-26T07:44:45;96520.31;;;10.30;100.00
46768;BME280;69007;48.978;18.066;2024-02-26T07:47:10;96520.16;;;9.97;100.00
46768;BME280;69007;48.978;18.066;2024-02-26T07:49:36;96520.44;;;9.95;100.00
46768;BME280;69007;48.978;18.066;2024-02-26T07:52:01;96501.22;;;9.63;100.00
46768;BME280;69007;48.978;18.066;2024-02-26T07:54:26;96494.81;;;9.48;100.00
46768;BME280;69007;48.978;18.066;2024-02-26T07:56:52;96511.03;;;9.58;100.00
46768;BME280;69007;48.978;18.066;2024-02-26T07:59:17;96504.50;;;9.30;100.00
46768;BME280;69007;48.978;18.066;2024-02-26T08:01:43;96504.78;;;9.29;100.00
46768;BME280;69007;48.978;18.066;2024-02-26T08:04:08;96523.75;;;9.34;100.00
46768;BME280;69007;48.978;18.066;2024-02-26T08:06:34;96514.66;;;9.49;100.00
46768;BME280;69007;48.978;18.066;2024-02-26T08:08:59;96501.22;;;9.33;100.00
46768;BME280;69007;48.978;18.066;2024-02-26T08:11:24;96521.19;;;9.48;100.00
46768;BME280;69007;48.978;18.066;2024-02-26T08:13:50;96516.75;;;9.57;100.00
46768;BME280;69007;48.978;18.066;2024-02-26T08:16:15;96513.59;;;9.74;100.00
46768;BME280;69007;48.978;18.066;2024-02-26T08:18:40;96501.53;;;10.09;100.00
46768;BME280;69007;48.978;18.066;2024-02-26T08:21:06;96488.75;;;10.10;100.00
46768;BME280;69007;48.978;18.066;2024-02-26T08:23:31;96487.72;;;9.82;100.00
46768;BME280;69007;48.978;18.066;2024-02-26T08:25:57;96512.25;;;10.68;100.00
46768;BME280;69007;48.978;18.066;2024-02-26T08:28:22;96511.25;;;10.59;100.00
46768;BME280;69007;48.978;18.066;2024-02-26T08:30:48;96525.84;;;12.05;92.14
46768;BME280;69007;48.978;18.066;2024-02-26T08:33:13;96495.53;;;11.46;94.67
46768;BME280;69007;48.978;18.066;2024-02-26T08:35:39;96514.41;;;11.56;94.76
46768;BME280;69007;48.978;18.066;2024-02-26T08:38:04;96510.53;;;11.43;95.31
46768;BME280;69007;48.978;18.066;2024-02-26T08:40:29;96516.72;;;11.16;96.97
46768;BME280;69007;48.978;18.066;2024-02-26T08:42:55;96512.69;;;10.94;99.27
46768;BME280;69007;48.978;18.066;2024-02-26T08:45:21;96495.03;;;10.73;100.00
46768;BME280;69007;48.978;18.066;2024-02-26T08:47:46;96500.81;;;10.47;100.00
46768;BME280;69007;48.978;18.066;2024-02-26T08:50:11;96528.09;;;10.61;100.00
46768;BME280;69007;48.978;18.066;2024-02-26T08:52:38;96503.31;;;10.62;100.00
46768;BME280;69007;48.978;18.066;2024-02-26T08:55:04;96523.78;;;10.60;100.00
46768;BME280;69007;48.978;18.066;2024-02-26T08:57:31;96512.34;;;10.39;100.00
46768;BME280;69007;48.978;18.066;2024-02-26T08:59:58;96501.09;;;10.45;100.00
46768;BME280;69007;48.978;18.066;2024-02-26T09:02:23;96513.31;;;10.48;100.00
46768;BME280;69007;48.978;18.066;2024-02-26T09:04:49;96485.72;;;10.36;100.00
46768;BME280;69007;48.978;18.066;2024-02-26T09:07:16;96515.94;;;10.34;100.00
46768;BME280;69007;48.978;18.066;2024-02-26T09:09:41;96498.63;;;10.25;100.00
46768;BME280;69007;48.978;18.066;2024-02-26T09:12:07;96530.72;;;10.47;100.00
46768;BME280;69007;48.978;18.066;2024-02-26T09:14:32;96491.50;;;10.29;100.00
46768;BME280;69007;48.978;18.066;2024-02-26T09:16:58;96527.50;;;10.21;100.00
46768;BME280;69007;48.978;18.066;2024-02-26T09:19:25;96508.88;;;10.09;100.00
46768;BME280;69007;48.978;18.066;2024-02-26T09:21:53;96510.19;;;10.60;100.00
46768;BME280;69007;48.978;18.066;2024-02-26T09:24:23;96510.59;;;10.48;100.00
46768;BME280;69007;48.978;18.066;2024-02-26T09:26:48;96509.78;;;10.47;100.00
46768;BME280;69007;48.978;18.066;2024-02-26T09:29:13;96507.41;;;10.41;100.00
46768;BME280;69007;48.978;18.066;2024-02-26T09:31:39;96501.03;;;10.50;100.00
46768;BME280;69007;48.978;18.066;2024-02-26T09:34:06;96543.03;;;10.44;100.00
46768;BME280;69007;48.978;18.066;2024-02-26T09:36:33;96498.03;;;10.33;100.00
46768;BME280;69007;48.978;18.066;2024-02-26T09:38:58;96499.31;;;10.36;100.00
46768;BME280;69007;48.978;18.066;2024-02-26T09:41:24;96497.50;;;10.26;100.00
46768;BME280;69007;48.978;18.066;2024-02-26T09:43:56;96509.44;;;10.30;100.00
46768;BME280;69007;48.978;18.066;2024-02-26T09:46:23;96511.75;;;10.42;100.00
46768;BME280;69007;48.978;18.066;2024-02-26T09:48:49;96510.59;;;10.48;100.00
46768;BME280;69007;48.978;18.066;2024-02-26T09:51:15;96500.78;;;10.28;100.00
46768;BME280;69007;48.978;18.066;2024-02-26T09:53:43;96515.69;;;10.55;100.00
46768;BME280;69007;48.978;18.066;2024-02-26T09:56:11;96508.91;;;10.52;100.00
46768;BME280;69007;48.978;18.066;2024-02-26T09:58:39;96513.50;;;10.76;100.00
46768;BME280;69007;48.978;18.066;2024-02-26T10:01:07;96539.31;;;10.97;100.00
46768;BME280;69007;48.978;18.066;2024-02-26T10:03:38;96535.63;;;11.07;100.00
46768;BME280;69007;48.978;18.066;2024-02-26T10:06:07;96514.88;;;10.92;98.86
46768;BME280;69007;48.978;18.066;2024-02-26T10:08:34;96525.03;;;11.05;98.84
46768;BME280;69007;48.978;18.066;2024-02-26T10:11:00;96536.28;;;11.18;99.01
46768;BME280;69007;48.978;18.066;2024-02-26T10:13:26;96526.78;;;11.48;96.74
46768;BME280;69007;48.978;18.066;2024-02-26T10:15:51;96527.41;;;11.45;94.01
46768;BME280;69007;48.978;18.066;2024-02-26T10:18:17;96534.44;;;11.65;92.75
46768;BME280;69007;48.978;18.066;2024-02-26T10:20:57;96528.09;;;11.70;91.04
46768;BME280;69007;48.978;18.066;2024-02-26T10:23:25;96528.41;;;11.49;92.29
46768;BME280;69007;48.978;18.066;2024-02-26T10:25:54;96523.38;;;11.56;93.22
46768;BME280;69007;48.978;18.066;2024-02-26T10:28:20;96549.59;;;11.85;92.25
46768;BME280;69007;48.978;18.066;2024-02-26T10:30:46;96544.09;;;11.57;92.29
46768;BME280;69007;48.978;18.066;2024-02-26T10:33:12;96532.97;;;11.54;90.75
46768;BME280;69007;48.978;18.066;2024-02-26T10:35:39;96564.69;;;11.31;90.79
46768;BME280;69007;48.978;18.066;2024-02-26T10:38:07;96544.47;;;11.51;90.20
46768;BME280;69007;48.978;18.066;2024-02-26T10:40:32;96552.22;;;11.76;88.00
46768;BME280;69007;48.978;18.066;2024-02-26T10:42:58;96565.47;;;11.83;89.79
46768;BME280;69007;48.978;18.066;2024-02-26T10:45:23;96552.97;;;11.96;88.61
46768;BME280;69007;48.978;18.066;2024-02-26T10:47:50;96554.78;;;12.01;88.44
46768;BME280;69007;48.978;18.066;2024-02-26T10:50:15;96535.56;;;11.78;90.17
46768;BME280;69007;48.978;18.066;2024-02-26T10:52:42;96544.38;;;12.03;90.85
46768;BME280;69007;48.978;18.066;2024-02-26T10:55:16;96535.31;;;11.93;90.00
46768;BME280;69007;48.978;18.066;2024-02-26T10:57:45;96536.44;;;12.20;88.12
46768;BME280;69007;48.978;18.066;2024-02-26T11:00:14;96546.13;;;12.40;86.21
46768;BME280;69007;48.978;18.066;2024-02-26T11:02:41;96532.19;;;12.42;84.81
46768;BME280;69007;48.978;18.066;2024-02-26T11:05:07;96521.19;;;12.33;85.09
46768;BME280;69007;48.978;18.066;2024-02-26T11:07:36;96535.41;;;12.44;84.64
46768;BME280;69007;48.978;18.066;2024-02-26T11:10:05;96535.41;;;12.44;83.55
46768;BME280;69007;48.978;18.066;2024-02-26T11:12:32;96534.09;;;12.69;81.61
46768;BME280;69007;48.978;18.066;2024-02-26T11:14:59;96512.25;;;12.55;82.68
46768;BME280;69007;48.978;18.066;2024-02-26T11:17:27;96518.22;;;12.57;81.59
46768;BME280;69007;48.978;18.066;2024-02-26T11:19:55;96534.00;;;12.46;82.19
46768;BME280;69007;48.978;18.066;2024-02-26T11:22:21;96505.69;;;12.42;82.54
46768;BME280;69007;48.978;18.066;2024-02-26T11:24:52;96521.47;;;12.59;85.70
46768;BME280;69007;48.978;18.066;2024-02-26T11:27:19;96507.81;;;12.59;81.96
46768;BME280;69007;48.978;18.066;2024-02-26T11:29:49;96499.94;;;12.44;82.88
46768;BME280;69007;48.978;18.066;2024-02-26T11:32:16;96553.41;;;12.17;83.69
46768;BME280;69007;48.978;18.066;2024-02-26T11:34:42;96516.53;;;12.20;84.54
46768;BME280;69007;48.978;18.066;2024-02-26T11:37:16;96511.75;;;12.53;84.34
46768;BME280;69007;48.978;18.066;2024-02-26T11:39:42;96505.63;;;12.47;83.53
46768;BME280;69007;48.978;18.066;2024-02-26T11:42:09;96522.38;;;12.54;82.76
46768;BME280;69007;48.978;18.066;2024-02-26T11:44:38;96518.03;;;12.53;82.93
46768;BME280;69007;48.978;18.066;2024-02-26T11:47:20;96521.28;;;12.56;85.36
46768;BME280;69007;48.978;18.066;2024-02-26T11:49:46;96511.84;;;12.76;81.81
46768;BME280;69007;48.978;18.066;2024-02-26T11:52:13;96523.06;;;12.74;80.87
46768;BME280;69007;48.978;18.066;2024-02-26T11:54:47;96499.81;;;12.63;82.21
46768;BME280;69007;48.978;18.066;2024-02-26T11:59:48;96491.56;;;12.54;80.70
46768;BME280;69007;48.978;18.066;2024-02-26T12:05:02;96488.34;;;12.38;82.48
46768;BME280;69007;48.978;18.066;2024-02-26T12:07:27;96505.34;;;12.71;81.14
46768;BME280;69007;48.978;18.066;2024-02-26T12:10:14;96482.66;;;12.62;79.06
46768;BME280;69007;48.978;18.066;2024-02-26T12:12:41;96509.00;;;12.81;79.30
46768;BME280;69007;48.978;18.066;2024-02-26T12:15:08;96551.56;;;12.68;81.33
46768;BME280;69007;48.978;18.066;2024-02-26T12:17:34;96506.91;;;12.50;82.48
46768;BME280;69007;48.978;18.066;2024-02-26T12:20:12;96500.06;;;12.39;81.24
46768;BME280;69007;48.978;18.066;2024-02-26T12:22:39;96503.69;;;12.34;82.21
46768;BME280;69007;48.978;18.066;2024-02-26T12:25:06;96478.44;;;12.28;82.77
46768;BME280;69007;48.978;18.066;2024-02-26T12:27:31;96486.13;;;12.26;82.88
46768;BME280;69007;48.978;18.066;2024-02-26T12:29:58;96487.53;;;12.24;83.50
46768;BME280;69007;48.978;18.066;2024-02-26T12:32:23;96483.78;;;12.33;83.50
46768;BME280;69007;48.978;18.066;2024-02-26T12:34:49;96498.63;;;12.55;81.52
46768;BME280;69007;48.978;18.066;2024-02-26T12:37:16;96496.38;;;12.71;81.51
46768;BME280;69007;48.978;18.066;2024-02-26T12:39:41;96498.38;;;12.65;80.54
46768;BME280;69007;48.978;18.066;2024-02-26T12:42:07;96468.50;;;12.60;80.85
46768;BME280;69007;48.978;18.066;2024-02-26T12:44:32;96483.50;;;12.85;80.46
46768;BME280;69007;48.978;18.066;2024-02-26T12:47:01;96484.47;;;12.53;81.90